sensor_id;sensor_type;location;lat;lon;timestamp;pressure;altitude;pressure_sealevel;temperature;humidity
32875;BME280;40468;42.128;24.750;2023-02-12T00:00:56;100733.41;;;0.65;41.14
32875;BME280;40468;42.128;24.750;2023-02-12T00:02:27;100723.19;;;0.70;41.02
32875;BME280;40468;42.128;24.750;2023-02-12T00:03:59;100730.91;;;0.73;40.95
32875;BME280;40468;42.128;24.750;2023-02-12T00:05:32;100732.69;;;0.77;40.87
32875;BME280;40468;42.128;24.750;2023-02-12T00:07:03;100725.84;;;0.78;40.80
32875;BME280;40468;42.128;24.750;2023-02-12T00:08:35;100719.03;;;0.81;40.88
32875;BME280;40468;42.128;24.750;2023-02-12T00:10:08;100722.47;;;0.83;40.62
32875;BME280;40468;42.128;24.750;2023-02-12T00:11:40;100714.78;;;0.85;40.64
32875;BME280;40468;42.128;24.750;2023-02-12T00:13:14;100711.41;;;0.86;40.64
32875;BME280;40468;42.128;24.750;2023-02-12T00:14:46;100717.31;;;0.82;40.60
32875;BME280;40468;42.128;24.750;2023-02-12T00:16:19;100709.56;;;0.76;40.35
32875;BME280;40468;42.128;24.750;2023-02-12T00:17:51;100709.66;;;0.85;40.49
32875;BME280;40468;42.128;24.750;2023-02-12T00:19:23;100703.69;;;0.84;40.51
32875;BME280;40468;42.128;24.750;2023-02-12T00:20:53;100706.25;;;0.87;40.34
32875;BME280;40468;42.128;24.750;2023-02-12T00:22:25;100713.13;;;0.90;40.20
32875;BME280;40468;42.128;24.750;2023-02-12T00:23:59;100702.00;;;0.91;40.21
32875;BME280;40468;42.128;24.750;2023-02-12T00:25:31;100706.31;;;0.92;40.24
32875;BME280;40468;42.128;24.750;2023-02-12T00:27:02;100701.22;;;0.95;39.96
32875;BME280;40468;42.128;24.750;2023-02-12T00:28:35;100703.81;;;0.98;39.97
32875;BME280;40468;42.128;24.750;2023-02-12T00:30:07;100702.13;;;1.02;39.87
32875;BME280;40468;42.128;24.750;2023-02-12T00:31:39;100704.69;;;1.06;39.78
32875;BME280;40468;42.128;24.750;2023-02-12T00:33:11;100694.47;;;1.09;39.75
32875;BME280;40468;42.128;24.750;2023-02-12T00:34:42;100688.53;;;1.13;39.59
32875;BME280;40468;42.128;24.750;2023-02-12T00:36:17;100687.69;;;1.18;39.54
32875;BME280;40468;42.128;24.750;2023-02-12T00:37:49;100679.19;;;1.22;39.33
32875;BME280;40468;42.128;24.750;2023-02-12T00:39:21;100682.59;;;1.24;39.14
32875;BME280;40468;42.128;24.750;2023-02-12T00:40:53;100682.66;;;1.28;39.03
32875;BME280;40468;42.128;24.750;2023-02-12T00:42:24;100674.97;;;1.33;38.91
32875;BME280;40468;42.128;24.750;2023-02-12T00:43:57;100672.41;;;1.36;38.84
32875;BME280;40468;42.128;24.750;2023-02-12T00:45:29;100672.47;;;1.42;38.79
32875;BME280;40468;42.128;24.750;2023-02-12T00:47:00;100669.94;;;1.45;38.60
32875;BME280;40468;42.128;24.750;2023-02-12T00:48:32;100658.81;;;1.51;38.64
32875;BME280;40468;42.128;24.750;2023-02-12T00:50:03;100654.59;;;1.54;38.46
32875;BME280;40468;42.128;24.750;2023-02-12T00:51:35;100650.31;;;1.59;38.28
32875;BME280;40468;42.128;24.750;2023-02-12T00:53:07;100656.34;;;1.63;38.32
32875;BME280;40468;42.128;24.750;2023-02-12T00:54:38;100649.50;;;1.67;38.09
32875;BME280;40468;42.128;24.750;2023-02-12T00:56:10;100646.09;;;1.69;38.12
32875;BME280;40468;42.128;24.750;2023-02-12T00:57:42;100657.22;;;1.73;38.17
32875;BME280;40468;42.128;24.750;2023-02-12T00:59:14;100651.22;;;1.74;38.07
32875;BME280;40468;42.128;24.750;2023-02-12T01:00:46;100643.56;;;1.75;37.96
32875;BME280;40468;42.128;24.750;2023-02-12T01:02:18;100640.16;;;1.78;37.93
32875;BME280;40468;42.128;24.750;2023-02-12T01:03:50;100642.69;;;1.79;37.84
32875;BME280;40468;42.128;24.750;2023-02-12T01:05:22;100648.69;;;1.78;37.68
32875;BME280;40468;42.128;24.750;2023-02-12T01:06:53;100641.84;;;1.79;37.70
32875;BME280;40468;42.128;24.750;2023-02-12T01:08:25;100636.72;;;1.82;37.46
32875;BME280;40468;42.128;24.750;2023-02-12T01:09:57;100641.88;;;1.85;37.33
32875;BME280;40468;42.128;24.750;2023-02-12T01:11:28;100635.03;;;1.87;37.22
32875;BME280;40468;42.128;24.750;2023-02-12T01:13:00;100626.47;;;1.91;37.09
32875;BME280;40468;42.128;24.750;2023-02-12T01:14:32;100630.78;;;1.95;36.99
32875;BME280;40468;42.128;24.750;2023-02-12T01:16:06;100630.81;;;1.98;36.99
32875;BME280;40468;42.128;24.750;2023-02-12T01:17:38;100620.50;;;1.94;36.99
32875;BME280;40468;42.128;24.750;2023-02-12T01:19:11;100629.97;;;2.05;36.79
32875;BME280;40468;42.128;24.750;2023-02-12T01:20:43;100635.13;;;2.10;36.54
32875;BME280;40468;42.128;24.750;2023-02-12T01:22:14;100633.41;;;2.15;36.34
32875;BME280;40468;42.128;24.750;2023-02-12T01:23:46;100630.00;;;2.19;36.28
32875;BME280;40468;42.128;24.750;2023-02-12T01:25:18;100633.41;;;2.24;36.12
32875;BME280;40468;42.128;24.750;2023-02-12T01:26:50;100634.31;;;2.28;36.00
32875;BME280;40468;42.128;24.750;2023-02-12T01:28:22;100627.44;;;2.27;36.01
32875;BME280;40468;42.128;24.750;2023-02-12T01:29:56;100628.28;;;2.31;35.91
32875;BME280;40468;42.128;24.750;2023-02-12T01:31:31;100638.59;;;2.35;35.91
32875;BME280;40468;42.128;24.750;2023-02-12T01:33:03;100629.19;;;2.37;35.76
32875;BME280;40468;42.128;24.750;2023-02-12T01:34:35;100628.34;;;2.40;35.62
32875;BME280;40468;42.128;24.750;2023-02-12T01:36:08;100626.59;;;2.40;35.67
32875;BME280;40468;42.128;24.750;2023-02-12T01:37:40;100626.59;;;2.40;35.67
32875;BME280;40468;42.128;24.750;2023-02-12T01:39:12;100632.59;;;2.41;35.63
32875;BME280;40468;42.128;24.750;2023-02-12T01:40:44;100623.16;;;2.38;35.86
32875;BME280;40468;42.128;24.750;2023-02-12T01:42:16;100620.63;;;2.37;35.80
32875;BME280;40468;42.128;24.750;2023-02-12T01:44:04;100613.75;;;2.36;35.93
32875;BME280;40468;42.128;24.750;2023-02-12T01:45:49;100616.31;;;2.36;35.73
32875;BME280;40468;42.128;24.750;2023-02-12T01:47:22;100614.59;;;2.35;35.66
32875;BME280;40468;42.128;24.750;2023-02-12T01:48:54;100615.47;;;2.38;35.87
32875;BME280;40468;42.128;24.750;2023-02-12T01:50:25;100614.59;;;2.38;35.79
32875;BME280;40468;42.128;24.750;2023-02-12T01:52:01;100616.31;;;2.37;35.75
32875;BME280;40468;42.128;24.750;2023-02-12T01:53:37;100618.03;;;2.38;35.60
32875;BME280;40468;42.128;24.750;2023-02-12T01:55:12;100613.75;;;2.39;35.54
32875;BME280;40468;42.128;24.750;2023-02-12T01:56:44;100606.03;;;2.39;35.60
32875;BME280;40468;42.128;24.750;2023-02-12T01:58:16;100612.03;;;2.41;35.45
32875;BME280;40468;42.128;24.750;2023-02-12T01:59:51;100613.75;;;2.43;35.50
32875;BME280;40468;42.128;24.750;2023-02-12T02:01:28;100612.91;;;2.44;35.41
32875;BME280;40468;42.128;24.750;2023-02-12T02:03:00;100618.06;;;2.46;35.44
32875;BME280;40468;42.128;24.750;2023-02-12T02:04:37;100614.63;;;2.48;35.45
32875;BME280;40468;42.128;24.750;2023-02-12T02:06:13;100611.19;;;2.49;35.39
32875;BME280;40468;42.128;24.750;2023-02-12T02:07:45;100617.19;;;2.50;35.38
32875;BME280;40468;42.128;24.750;2023-02-12T02:09:18;100603.47;;;2.48;35.04
32875;BME280;40468;42.128;24.750;2023-02-12T02:10:50;100603.47;;;2.49;35.14
32875;BME280;40468;42.128;24.750;2023-02-12T02:12:22;100600.06;;;2.52;35.23
32875;BME280;40468;42.128;24.750;2023-02-12T02:14:12;100598.31;;;2.51;35.20
32875;BME280;40468;42.128;24.750;2023-02-12T02:16:09;100599.19;;;2.50;35.20
32875;BME280;40468;42.128;24.750;2023-02-12T02:17:50;100597.47;;;2.47;35.16
32875;BME280;40468;42.128;24.750;2023-02-12T02:19:32;100600.06;;;2.46;35.13
32875;BME280;40468;42.128;24.750;2023-02-12T02:21:18;100612.91;;;2.44;35.15
32875;BME280;40468;42.128;24.750;2023-02-12T02:23:09;100613.75;;;2.43;35.29
32875;BME280;40468;42.128;24.750;2023-02-12T02:25:03;100615.47;;;2.43;35.19
32875;BME280;40468;42.128;24.750;2023-02-12T02:27:13;100616.31;;;2.43;35.08
32875;BME280;40468;42.128;24.750;2023-02-12T02:29:10;100618.03;;;2.44;35.06
32875;BME280;40468;42.128;24.750;2023-02-12T02:30:50;100617.19;;;2.44;35.09
32875;BME280;40468;42.128;24.750;2023-02-12T02:32:28;100624.03;;;2.43;34.99
32875;BME280;40468;42.128;24.750;2023-02-12T02:34:08;100619.75;;;2.44;34.92
32875;BME280;40468;42.128;24.750;2023-02-12T02:35:47;100615.47;;;2.43;35.14
32875;BME280;40468;42.128;24.750;2023-02-12T02:37:26;100620.63;;;2.43;35.00
32875;BME280;40468;42.128;24.750;2023-02-12T02:39:04;100627.44;;;2.45;34.88
32875;BME280;40468;42.128;24.750;2023-02-12T02:40:40;100618.06;;;2.43;34.93
32875;BME280;40468;42.128;24.750;2023-02-12T02:42:18;100620.63;;;2.43;34.79
32875;BME280;40468;42.128;24.750;2023-02-12T02:43:53;100622.31;;;2.44;34.80
32875;BME280;40468;42.128;24.750;2023-02-12T02:45:30;100618.91;;;2.43;34.68
32875;BME280;40468;42.128;24.750;2023-02-12T02:47:08;100619.75;;;2.44;34.80
32875;BME280;40468;42.128;24.750;2023-02-12T02:48:45;100625.75;;;2.43;34.76
32875;BME280;40468;42.128;24.750;2023-02-12T02:50:21;100624.91;;;2.44;34.78
32875;BME280;40468;42.128;24.750;2023-02-12T02:52:00;100615.47;;;2.46;34.78
32875;BME280;40468;42.128;24.750;2023-02-12T02:53:40;100621.47;;;2.48;34.83
32875;BME280;40468;42.128;24.750;2023-02-12T02:55:15;100622.31;;;2.50;34.82
32875;BME280;40468;42.128;24.750;2023-02-12T02:56:50;100632.63;;;2.50;34.75
32875;BME280;40468;42.128;24.750;2023-02-12T02:58:27;100622.31;;;2.50;34.77
32875;BME280;40468;42.128;24.750;2023-02-12T03:00:05;100619.75;;;2.53;34.80
32875;BME280;40468;42.128;24.750;2023-02-12T03:01:40;100626.63;;;2.56;34.80
32875;BME280;40468;42.128;24.750;2023-02-12T03:03:21;100620.59;;;2.54;34.86
32875;BME280;40468;42.128;24.750;2023-02-12T03:04:57;100620.63;;;2.55;34.96
32875;BME280;40468;42.128;24.750;2023-02-12T03:06:35;100611.19;;;2.56;34.94
32875;BME280;40468;42.128;24.750;2023-02-12T03:08:11;100612.06;;;2.58;34.94
32875;BME280;40468;42.128;24.750;2023-02-12T03:09:49;100606.91;;;2.58;35.08
32875;BME280;40468;42.128;24.750;2023-02-12T03:11:24;100618.91;;;2.60;35.11
32875;BME280;40468;42.128;24.750;2023-02-12T03:13:00;100623.19;;;2.61;34.95
32875;BME280;40468;42.128;24.750;2023-02-12T03:14:37;100621.47;;;2.65;35.05
32875;BME280;40468;42.128;24.750;2023-02-12T03:16:14;100611.22;;;2.63;34.93
32875;BME280;40468;42.128;24.750;2023-02-12T03:17:49;100614.63;;;2.65;35.16
32875;BME280;40468;42.128;24.750;2023-02-12T03:19:25;100620.59;;;2.69;35.09
32875;BME280;40468;42.128;24.750;2023-02-12T03:21:02;100610.31;;;2.69;35.01
32875;BME280;40468;42.128;24.750;2023-02-12T03:22:39;100609.50;;;2.70;35.10
32875;BME280;40468;42.128;24.750;2023-02-12T03:24:15;100615.47;;;2.73;35.19
32875;BME280;40468;42.128;24.750;2023-02-12T03:25:53;100613.75;;;2.74;35.12
32875;BME280;40468;42.128;24.750;2023-02-12T03:27:30;100618.91;;;2.74;34.92
32875;BME280;40468;42.128;24.750;2023-02-12T03:29:03;100618.03;;;2.75;34.93
32875;BME280;40468;42.128;24.750;2023-02-12T03:30:41;100612.03;;;2.74;35.11
32875;BME280;40468;42.128;24.750;2023-02-12T03:32:26;100613.75;;;2.74;35.08
32875;BME280;40468;42.128;24.750;2023-02-12T03:34:06;100616.34;;;2.74;35.05
32875;BME280;40468;42.128;24.750;2023-02-12T03:35:45;100612.03;;;2.74;34.93
32875;BME280;40468;42.128;24.750;2023-02-12T03:37:27;100604.31;;;2.74;34.81
32875;BME280;40468;42.128;24.750;2023-02-12T03:39:07;100606.03;;;2.74;34.83
32875;BME280;40468;42.128;24.750;2023-02-12T03:40:43;100606.91;;;2.73;35.07
32875;BME280;40468;42.128;24.750;2023-02-12T03:42:22;100597.47;;;2.72;34.96
32875;BME280;40468;42.128;24.750;2023-02-12T03:44:03;100605.19;;;2.73;34.99
32875;BME280;40468;42.128;24.750;2023-02-12T03:45:43;100605.19;;;2.72;34.73
32875;BME280;40468;42.128;24.750;2023-02-12T03:47:20;100602.59;;;2.75;34.74
32875;BME280;40468;42.128;24.750;2023-02-12T03:48:59;100609.47;;;2.74;34.70
32875;BME280;40468;42.128;24.750;2023-02-12T03:50:37;100598.34;;;2.71;34.78
32875;BME280;40468;42.128;24.750;2023-02-12T03:52:14;100613.78;;;2.76;34.78
32875;BME280;40468;42.128;24.750;2023-02-12T03:53:46;100606.03;;;2.77;34.76
32875;BME280;40468;42.128;24.750;2023-02-12T03:55:19;100605.19;;;2.77;34.68
32875;BME280;40468;42.128;24.750;2023-02-12T03:56:54;100603.47;;;2.77;34.68
32875;BME280;40468;42.128;24.750;2023-02-12T03:58:28;100610.34;;;2.77;34.79
32875;BME280;40468;42.128;24.750;2023-02-12T04:00:05;100610.34;;;2.77;34.52
32875;BME280;40468;42.128;24.750;2023-02-12T04:01:37;100602.63;;;2.78;34.68
32875;BME280;40468;42.128;24.750;2023-02-12T04:03:09;100613.75;;;2.77;34.64
32875;BME280;40468;42.128;24.750;2023-02-12T04:04:43;100608.63;;;2.76;34.77
32875;BME280;40468;42.128;24.750;2023-02-12T04:06:21;100608.63;;;2.77;34.91
32875;BME280;40468;42.128;24.750;2023-02-12T04:07:55;100606.03;;;2.74;34.94
32875;BME280;40468;42.128;24.750;2023-02-12T04:09:30;100607.75;;;2.75;35.13
32875;BME280;40468;42.128;24.750;2023-02-12T04:11:06;100599.19;;;2.74;35.36
32875;BME280;40468;42.128;24.750;2023-02-12T04:12:51;100615.50;;;2.81;35.28
32875;BME280;40468;42.128;24.750;2023-02-12T04:14:30;100612.03;;;2.84;35.28
32875;BME280;40468;42.128;24.750;2023-02-12T04:16:15;100609.47;;;2.82;35.27
32875;BME280;40468;42.128;24.750;2023-02-12T04:17:50;100617.19;;;2.88;35.37
32875;BME280;40468;42.128;24.750;2023-02-12T04:19:34;100622.34;;;2.90;35.10
32875;BME280;40468;42.128;24.750;2023-02-12T04:21:13;100618.06;;;2.90;35.15
32875;BME280;40468;42.128;24.750;2023-02-12T04:22:57;100620.59;;;2.92;34.90
32875;BME280;40468;42.128;24.750;2023-02-12T04:24:43;100630.06;;;2.93;34.86
32875;BME280;40468;42.128;24.750;2023-02-12T04:26:31;100622.34;;;2.93;34.73
32875;BME280;40468;42.128;24.750;2023-02-12T04:28:13;100630.06;;;2.94;34.56
32875;BME280;40468;42.128;24.750;2023-02-12T04:29:49;100630.06;;;2.96;34.52
32875;BME280;40468;42.128;24.750;2023-02-12T04:31:26;100636.06;;;2.96;34.55
32875;BME280;40468;42.128;24.750;2023-02-12T04:33:02;100621.47;;;2.88;34.50
32875;BME280;40468;42.128;24.750;2023-02-12T04:34:38;100629.19;;;2.97;34.39
32875;BME280;40468;42.128;24.750;2023-02-12T04:36:17;100627.47;;;2.97;34.54
32875;BME280;40468;42.128;24.750;2023-02-12T04:37:56;100636.88;;;3.02;34.41
32875;BME280;40468;42.128;24.750;2023-02-12T04:39:34;100626.59;;;3.03;34.38
32875;BME280;40468;42.128;24.750;2023-02-12T04:41:07;100636.91;;;3.06;34.47
32875;BME280;40468;42.128;24.750;2023-02-12T04:42:41;100632.63;;;3.08;34.50
32875;BME280;40468;42.128;24.750;2023-02-12T04:44:14;100630.91;;;3.09;34.31
32875;BME280;40468;42.128;24.750;2023-02-12T04:45:46;100626.63;;;3.11;34.32
32875;BME280;40468;42.128;24.750;2023-02-12T04:47:18;100633.47;;;3.12;34.25
32875;BME280;40468;42.128;24.750;2023-02-12T04:48:52;100625.75;;;3.15;34.34
32875;BME280;40468;42.128;24.750;2023-02-12T04:50:26;100630.03;;;3.08;34.19
32875;BME280;40468;42.128;24.750;2023-02-12T04:52:05;100647.19;;;3.20;34.40
32875;BME280;40468;42.128;24.750;2023-02-12T04:53:38;100633.44;;;3.21;34.34
32875;BME280;40468;42.128;24.750;2023-02-12T04:55:10;100627.44;;;3.21;34.44
32875;BME280;40468;42.128;24.750;2023-02-12T04:56:43;100634.31;;;3.15;34.34
32875;BME280;40468;42.128;24.750;2023-02-12T04:58:15;100645.47;;;3.21;34.22
32875;BME280;40468;42.128;24.750;2023-02-12T04:59:47;100644.59;;;3.25;34.49
32875;BME280;40468;42.128;24.750;2023-02-12T05:01:19;100652.31;;;3.26;34.46
32875;BME280;40468;42.128;24.750;2023-02-12T05:03:05;100644.59;;;3.28;34.51
32875;BME280;40468;42.128;24.750;2023-02-12T05:04:36;100641.16;;;3.29;34.52
32875;BME280;40468;42.128;24.750;2023-02-12T05:06:08;100636.88;;;3.29;34.55
32875;BME280;40468;42.128;24.750;2023-02-12T05:07:40;100643.75;;;3.29;34.56
32875;BME280;40468;42.128;24.750;2023-02-12T05:09:14;100637.72;;;3.28;34.52
32875;BME280;40468;42.128;24.750;2023-02-12T05:10:46;100636.88;;;3.29;34.60
32875;BME280;40468;42.128;24.750;2023-02-12T05:12:18;100643.72;;;3.27;34.69
32875;BME280;40468;42.128;24.750;2023-02-12T05:13:51;100634.28;;;3.22;34.66
32875;BME280;40468;42.128;24.750;2023-02-12T05:15:23;100654.88;;;3.29;34.80
32875;BME280;40468;42.128;24.750;2023-02-12T05:16:55;100660.88;;;3.30;34.62
32875;BME280;40468;42.128;24.750;2023-02-12T05:18:27;100655.75;;;3.30;34.73
32875;BME280;40468;42.128;24.750;2023-02-12T05:19:57;100666.03;;;3.33;34.90
32875;BME280;40468;42.128;24.750;2023-02-12T05:21:29;100671.19;;;3.31;34.83
32875;BME280;40468;42.128;24.750;2023-02-12T05:23:01;100678.94;;;3.31;34.85
32875;BME280;40468;42.128;24.750;2023-02-12T05:24:34;100669.47;;;3.30;34.65
32875;BME280;40468;42.128;24.750;2023-02-12T05:26:10;100676.34;;;3.31;34.91
32875;BME280;40468;42.128;24.750;2023-02-12T05:27:42;100682.34;;;3.32;34.72
32875;BME280;40468;42.128;24.750;2023-02-12T05:29:14;100677.19;;;3.32;34.79
32875;BME280;40468;42.128;24.750;2023-02-12T05:30:46;100676.34;;;3.34;34.91
32875;BME280;40468;42.128;24.750;2023-02-12T05:32:18;100676.34;;;3.34;34.78
32875;BME280;40468;42.128;24.750;2023-02-12T05:33:50;100672.91;;;3.35;34.96
32875;BME280;40468;42.128;24.750;2023-02-12T05:35:21;100677.19;;;3.36;34.95
32875;BME280;40468;42.128;24.750;2023-02-12T05:36:52;100667.75;;;3.35;34.97
32875;BME280;40468;42.128;24.750;2023-02-12T05:38:24;100674.63;;;3.35;35.03
32875;BME280;40468;42.128;24.750;2023-02-12T05:39:56;100678.03;;;3.35;35.14
32875;BME280;40468;42.128;24.750;2023-02-12T05:41:28;100678.03;;;3.38;35.20
32875;BME280;40468;42.128;24.750;2023-02-12T05:43:04;100672.88;;;3.38;35.13
32875;BME280;40468;42.128;24.750;2023-02-12T05:44:35;100675.47;;;3.41;34.96
32875;BME280;40468;42.128;24.750;2023-02-12T05:46:07;100667.72;;;3.40;35.08
32875;BME280;40468;42.128;24.750;2023-02-12T05:47:38;100677.19;;;3.41;35.11
32875;BME280;40468;42.128;24.750;2023-02-12T05:49:10;100669.44;;;3.42;35.09
32875;BME280;40468;42.128;24.750;2023-02-12T05:50:41;100673.75;;;3.40;35.08
32875;BME280;40468;42.128;24.750;2023-02-12T05:52:13;100682.31;;;3.42;35.01
32875;BME280;40468;42.128;24.750;2023-02-12T05:53:44;100684.03;;;3.45;34.98
32875;BME280;40468;42.128;24.750;2023-02-12T05:55:18;100684.03;;;3.45;35.29
32875;BME280;40468;42.128;24.750;2023-02-12T05:56:50;100667.72;;;3.45;35.41
32875;BME280;40468;42.128;24.750;2023-02-12T05:58:20;100674.56;;;3.52;35.52
32875;BME280;40468;42.128;24.750;2023-02-12T05:59:52;100684.00;;;3.57;35.56
32875;BME280;40468;42.128;24.750;2023-02-12T06:01:27;100688.28;;;3.60;35.42
32875;BME280;40468;42.128;24.750;2023-02-12T06:02:58;100680.56;;;3.61;35.37
32875;BME280;40468;42.128;24.750;2023-02-12T06:04:30;100677.13;;;3.62;35.31
32875;BME280;40468;42.128;24.750;2023-02-12T06:06:02;100686.56;;;3.63;35.43
32875;BME280;40468;42.128;24.750;2023-02-12T06:07:33;100682.25;;;3.69;35.37
32875;BME280;40468;42.128;24.750;2023-02-12T06:09:04;100687.41;;;3.72;35.41
32875;BME280;40468;42.128;24.750;2023-02-12T06:10:37;100686.53;;;3.77;35.53
32875;BME280;40468;42.128;24.750;2023-02-12T06:12:09;100688.22;;;3.81;35.51
32875;BME280;40468;42.128;24.750;2023-02-12T06:13:41;100685.66;;;3.86;35.53
32875;BME280;40468;42.128;24.750;2023-02-12T06:15:12;100680.50;;;3.87;35.50
32875;BME280;40468;42.128;24.750;2023-02-12T06:16:58;100692.47;;;3.93;35.65
32875;BME280;40468;42.128;24.750;2023-02-12T06:18:30;100683.03;;;3.95;35.67
32875;BME280;40468;42.128;24.750;2023-02-12T06:20:00;100683.88;;;3.99;35.65
32875;BME280;40468;42.128;24.750;2023-02-12T06:21:33;100692.44;;;4.04;35.64
32875;BME280;40468;42.128;24.750;2023-02-12T06:23:04;100679.56;;;4.08;35.60
32875;BME280;40468;42.128;24.750;2023-02-12T06:24:36;100691.56;;;4.14;35.54
32875;BME280;40468;42.128;24.750;2023-02-12T06:26:10;100676.06;;;4.19;35.54
32875;BME280;40468;42.128;24.750;2023-02-12T06:27:41;100682.91;;;4.23;35.61
32875;BME280;40468;42.128;24.750;2023-02-12T06:29:12;100674.28;;;4.25;35.52
32875;BME280;40468;42.128;24.750;2023-02-12T06:30:44;100676.00;;;4.29;35.57
32875;BME280;40468;42.128;24.750;2023-02-12T06:32:16;100684.56;;;4.33;35.46
32875;BME280;40468;42.128;24.750;2023-02-12T06:33:48;100676.00;;;4.29;35.42
32875;BME280;40468;42.128;24.750;2023-02-12T06:35:19;100690.53;;;4.40;35.56
32875;BME280;40468;42.128;24.750;2023-02-12T06:37:00;100684.53;;;4.44;35.38
32875;BME280;40468;42.128;24.750;2023-02-12T06:38:33;100685.34;;;4.50;35.57
32875;BME280;40468;42.128;24.750;2023-02-12T06:40:06;100684.44;;;4.54;35.51
32875;BME280;40468;42.128;24.750;2023-02-12T06:41:39;100688.72;;;4.59;35.51
32875;BME280;40468;42.128;24.750;2023-02-12T06:43:11;100686.97;;;4.62;35.46
32875;BME280;40468;42.128;24.750;2023-02-12T06:44:42;100695.56;;;4.66;35.45
32875;BME280;40468;42.128;24.750;2023-02-12T06:46:15;100696.41;;;4.68;35.51
32875;BME280;40468;42.128;24.750;2023-02-12T06:47:47;100702.41;;;4.68;35.53
32875;BME280;40468;42.128;24.750;2023-02-12T06:49:19;100703.28;;;4.70;35.54
32875;BME280;40468;42.128;24.750;2023-02-12T06:50:51;100698.94;;;4.74;35.62
32875;BME280;40468;42.128;24.750;2023-02-12T06:52:23;100695.50;;;4.75;35.70
32875;BME280;40468;42.128;24.750;2023-02-12T06:53:55;100705.78;;;4.79;35.66
32875;BME280;40468;42.128;24.750;2023-02-12T06:55:27;100701.47;;;4.83;35.67
32875;BME280;40468;42.128;24.750;2023-02-12T06:57:00;100690.22;;;4.87;35.67
32875;BME280;40468;42.128;24.750;2023-02-12T06:58:32;100694.53;;;4.88;35.70
32875;BME280;40468;42.128;24.750;2023-02-12T07:00:04;100704.81;;;4.94;35.75
32875;BME280;40468;42.128;24.750;2023-02-12T07:01:36;100705.66;;;4.96;35.74
32875;BME280;40468;42.128;24.750;2023-02-12T07:03:08;100715.97;;;4.98;35.84
32875;BME280;40468;42.128;24.750;2023-02-12T07:04:40;100710.75;;;5.02;35.74
32875;BME280;40468;42.128;24.750;2023-02-12T07:06:12;100712.50;;;5.04;35.81
32875;BME280;40468;42.128;24.750;2023-02-12T07:07:44;100716.78;;;5.06;35.81
32875;BME280;40468;42.128;24.750;2023-02-12T07:09:19;100726.19;;;5.09;35.83
32875;BME280;40468;42.128;24.750;2023-02-12T07:10:51;100725.31;;;5.11;35.87
32875;BME280;40468;42.128;24.750;2023-02-12T07:12:24;100724.47;;;5.12;35.86
32875;BME280;40468;42.128;24.750;2023-02-12T07:13:57;100725.31;;;5.13;35.96
32875;BME280;40468;42.128;24.750;2023-02-12T07:15:29;100717.59;;;5.10;36.10
32875;BME280;40468;42.128;24.750;2023-02-12T07:17:00;100726.19;;;5.12;36.09
32875;BME280;40468;42.128;24.750;2023-02-12T07:18:35;100715.88;;;5.12;36.17
32875;BME280;40468;42.128;24.750;2023-02-12T07:20:08;100725.31;;;5.11;36.29
32875;BME280;40468;42.128;24.750;2023-02-12T07:21:40;100725.31;;;5.13;36.35
32875;BME280;40468;42.128;24.750;2023-02-12T07:23:12;100712.38;;;5.16;36.31
32875;BME280;40468;42.128;24.750;2023-02-12T07:24:45;100713.22;;;5.19;36.30
32875;BME280;40468;42.128;24.750;2023-02-12T07:26:17;100714.06;;;5.21;36.35
32875;BME280;40468;42.128;24.750;2023-02-12T07:27:50;100709.75;;;5.23;36.40
32875;BME280;40468;42.128;24.750;2023-02-12T07:29:22;100712.31;;;5.25;36.32
32875;BME280;40468;42.128;24.750;2023-02-12T07:30:54;100705.41;;;5.25;36.57
32875;BME280;40468;42.128;24.750;2023-02-12T07:32:26;100716.56;;;5.29;36.50
32875;BME280;40468;42.128;24.750;2023-02-12T07:33:58;100703.75;;;5.21;36.50
32875;BME280;40468;42.128;24.750;2023-02-12T07:35:30;100710.53;;;5.30;36.61
32875;BME280;40468;42.128;24.750;2023-02-12T07:37:02;100714.84;;;5.33;36.53
32875;BME280;40468;42.128;24.750;2023-02-12T07:38:33;100708.78;;;5.34;36.53
32875;BME280;40468;42.128;24.750;2023-02-12T07:40:09;100713.06;;;5.35;36.67
32875;BME280;40468;42.128;24.750;2023-02-12T07:41:41;100719.13;;;5.32;36.67
32875;BME280;40468;42.128;24.750;2023-02-12T07:43:14;100712.25;;;5.33;36.74
32875;BME280;40468;42.128;24.750;2023-02-12T07:44:47;100721.72;;;5.31;36.79
32875;BME280;40468;42.128;24.750;2023-02-12T07:46:20;100715.69;;;5.32;36.87
32875;BME280;40468;42.128;24.750;2023-02-12T07:47:53;100714.81;;;5.36;36.78
32875;BME280;40468;42.128;24.750;2023-02-12T07:49:25;100715.63;;;5.39;36.86
32875;BME280;40468;42.128;24.750;2023-02-12T07:51:02;100713.91;;;5.41;36.79
32875;BME280;40468;42.128;24.750;2023-02-12T07:52:34;100721.63;;;5.43;36.91
32875;BME280;40468;42.128;24.750;2023-02-12T07:54:06;100720.72;;;5.44;36.90
32875;BME280;40468;42.128;24.750;2023-02-12T07:55:38;100727.63;;;5.45;36.84
32875;BME280;40468;42.128;24.750;2023-02-12T07:57:10;100734.50;;;5.46;36.94
32875;BME280;40468;42.128;24.750;2023-02-12T07:58:45;100735.31;;;5.51;36.84
32875;BME280;40468;42.128;24.750;2023-02-12T08:00:17;100732.72;;;5.54;36.71
32875;BME280;40468;42.128;24.750;2023-02-12T08:01:51;100733.53;;;5.59;36.77
32875;BME280;40468;42.128;24.750;2023-02-12T08:03:23;100736.91;;;5.66;36.92
32875;BME280;40468;42.128;24.750;2023-02-12T08:04:55;100735.97;;;5.72;36.83
32875;BME280;40468;42.128;24.750;2023-02-12T08:06:29;100732.47;;;5.77;36.73
32875;BME280;40468;42.128;24.750;2023-02-12T08:08:01;100731.56;;;5.83;36.84
32875;BME280;40468;42.128;24.750;2023-02-12T08:09:34;100741.00;;;5.87;36.73
32875;BME280;40468;42.128;24.750;2023-02-12T08:11:06;100748.75;;;5.87;36.71
32875;BME280;40468;42.128;24.750;2023-02-12T08:12:37;100746.16;;;5.87;36.90
32875;BME280;40468;42.128;24.750;2023-02-12T08:14:13;100746.13;;;5.90;36.86